Zacatecas / Zac. (la Bufa, Mexico

1:30 PM CST on January 17, 2017 (GMT -0600)
La Isabelica | | Change Station

Elev 8130 ft 22.76 °N, 102.57 °W | Updated 7 seconds ago

Mostly Cloudy
Mostly Cloudy
58.3 °F
Feels Like 58.3 °F
N
14.3
Wind Variable Wind from WSW
Gusts 20.1 mph

Today
High -- | Low -- °F
--% Chance of Precip.
Yesterday
High -- | Low -- °F
Precip. -- in
Pressure 30.20 in
Visibility 10.0 miles
Clouds Scattered Clouds 3000 ft
Mostly Cloudy 20000 ft
Dew Point 32 °F
Humidity 37%
Rainfall 0.00 in
Snow Depth Not available.
7:32 AM 6:28 PM
Waning Gibbous, 70% visible
METAR MMZC 171855Z 23020G30KT 10SM SCT030 BKN200 17/01 A3020 RMK 8/101
Pressure 30.20 in
Visibility 10.0 miles
Clouds Scattered Clouds 3000 ft
Mostly Cloudy 20000 ft
Dew Point 32 °F
Humidity 37%
Rainfall 0.00 in
Snow Depth Not available.
7:32 AM 6:28 PM
Waning Gibbous, 70% visible
METAR MMZC 171855Z 23020G30KT 10SM SCT030 BKN200 17/01 A3020 RMK 8/101

Get Your Daily Forecast Email!

Thanks for signing up!

Be on the lookout for a verification email in your inbox.

You'll start receiving the daily forecast at 8 AM.

×

10-Day Weather Forecast

No radar image for this location.
×

Almanac

Astronomy

Jan. 17, 2017 Rise Set
Actual Time
Civil Twilight
Nautical Twilight
Astronomical Twilight
Moon
Length of Visible Light
Length of Day
Tomorrow will be .
, % of the Moon is Illuminated

Today's Extremes

Country Highs Country Lows

Community

WunderPhotos

Upload Photos

1,962,540 photos uploaded!

WunderBlog® & News

Nearby

Air Quality

  Air Quality AQ Index Pollutant
Not available.

Snow Depth

Station Depth Elevation

Earthquake Activity

City Distance Mag. Time & Date
Minimum magnitude displayed is 2.5.

Coastal Water Temperatures

Place Temperature

Stations

Nearby Weather Stations

Station Location Temp. Windchill Dew Point Humidity Wind Precip. Elev Updated Type